sensor_id;sensor_type;location;lat;lon;timestamp;pressure;altitude;pressure_sealevel;temperature;humidity
64632;BME280;58358;50.936;0.246;2023-04-01T00:00:20;99245.96;;;6.99;100.00
64632;BME280;58358;50.936;0.246;2023-04-01T00:02:46;99251.59;;;6.40;100.00
64632;BME280;58358;50.936;0.246;2023-04-01T00:05:12;99252.16;;;6.94;100.00
64632;BME280;58358;50.936;0.246;2023-04-01T00:07:37;99252.33;;;7.56;100.00
64632;BME280;58358;50.936;0.246;2023-04-01T00:10:03;99253.71;;;8.05;100.00
64632;BME280;58358;50.936;0.246;2023-04-01T00:12:28;99259.54;;;8.13;100.00
64632;BME280;58358;50.936;0.246;2023-04-01T00:14:54;99263.78;;;7.37;100.00
64632;BME280;58358;50.936;0.246;2023-04-01T00:17:19;99263.42;;;7.26;100.00
64632;BME280;58358;50.936;0.246;2023-04-01T00:19:45;99264.64;;;7.39;100.00
64632;BME280;58358;50.936;0.246;2023-04-01T00:22:11;99271.08;;;6.55;100.00
64632;BME280;58358;50.936;0.246;2023-04-01T00:24:37;99276.56;;;7.10;100.00
64632;BME280;58358;50.936;0.246;2023-04-01T00:27:03;99279.40;;;6.75;100.00
64632;BME280;58358;50.936;0.246;2023-04-01T00:29:28;99279.73;;;6.32;100.00
64632;BME280;58358;50.936;0.246;2023-04-01T00:31:55;99282.22;;;7.24;100.00
64632;BME280;58358;50.936;0.246;2023-04-01T00:34:20;99279.18;;;7.42;100.00
64632;BME280;58358;50.936;0.246;2023-04-01T00:36:45;99284.25;;;6.85;100.00
64632;BME280;58358;50.936;0.246;2023-04-01T00:39:11;99288.10;;;6.76;100.00
64632;BME280;58358;50.936;0.246;2023-04-01T00:41:37;99292.10;;;7.17;100.00
64632;BME280;58358;50.936;0.246;2023-04-01T00:44:14;99298.58;;;7.25;100.00
64632;BME280;58358;50.936;0.246;2023-04-01T00:46:28;99303.16;;;6.51;100.00
64632;BME280;58358;50.936;0.246;2023-04-01T00:48:55;99304.47;;;6.48;100.00
64632;BME280;58358;50.936;0.246;2023-04-01T00:51:23;99305.40;;;6.17;100.00
64632;BME280;58358;50.936;0.246;2023-04-01T00:53:47;99307.79;;;6.62;100.00
64632;BME280;58358;50.936;0.246;2023-04-01T00:56:12;99307.80;;;7.05;100.00
64632;BME280;58358;50.936;0.246;2023-04-01T00:58:40;99312.98;;;6.67;100.00
64632;BME280;58358;50.936;0.246;2023-04-01T01:01:01;99313.94;;;7.17;100.00
64632;BME280;58358;50.936;0.246;2023-04-01T01:03:28;99320.54;;;7.01;100.00
64632;BME280;58358;50.936;0.246;2023-04-01T01:06:08;99320.73;;;6.60;100.00
64632;BME280;58358;50.936;0.246;2023-04-01T01:08:25;99325.93;;;6.26;100.00
64632;BME280;58358;50.936;0.246;2023-04-01T01:10:48;99327.97;;;7.09;100.00
64632;BME280;58358;50.936;0.246;2023-04-01T01:13:13;99328.71;;;7.13;100.00
64632;BME280;58358;50.936;0.246;2023-04-01T01:15:39;99332.07;;;6.34;100.00
64632;BME280;58358;50.936;0.246;2023-04-01T01:18:07;99327.05;;;7.11;100.00
64632;BME280;58358;50.936;0.246;2023-04-01T01:22:58;99326.96;;;6.57;100.00
64632;BME280;58358;50.936;0.246;2023-04-01T01:25:25;99327.62;;;5.81;100.00
64632;BME280;58358;50.936;0.246;2023-04-01T01:27:49;99335.89;;;6.55;100.00
64632;BME280;58358;50.936;0.246;2023-04-01T01:30:15;99335.95;;;6.48;100.00
64632;BME280;58358;50.936;0.246;2023-04-01T01:32:49;99335.23;;;6.26;100.00
64632;BME280;58358;50.936;0.246;2023-04-01T01:35:11;99342.92;;;6.77;100.00
64632;BME280;58358;50.936;0.246;2023-04-01T01:37:27;99351.47;;;6.86;100.00
64632;BME280;58358;50.936;0.246;2023-04-01T01:39:55;99347.69;;;6.76;100.00
64632;BME280;58358;50.936;0.246;2023-04-01T01:42:18;99347.04;;;7.71;100.00
64632;BME280;58358;50.936;0.246;2023-04-01T01:44:46;99350.78;;;6.62;100.00
64632;BME280;58358;50.936;0.246;2023-04-01T01:47:09;99350.55;;;7.02;100.00
64632;BME280;58358;50.936;0.246;2023-04-01T01:49:35;99358.70;;;6.93;100.00
64632;BME280;58358;50.936;0.246;2023-04-01T01:52:00;99365.13;;;6.95;100.00
64632;BME280;58358;50.936;0.246;2023-04-01T01:54:26;99375.66;;;6.62;100.00
64632;BME280;58358;50.936;0.246;2023-04-01T01:56:57;99378.44;;;6.51;100.00
64632;BME280;58358;50.936;0.246;2023-04-01T01:59:20;99387.00;;;6.50;100.00
64632;BME280;58358;50.936;0.246;2023-04-01T02:01:48;99385.94;;;6.87;100.00
64632;BME280;58358;50.936;0.246;2023-04-01T02:04:08;99388.43;;;6.75;100.00
64632;BME280;58358;50.936;0.246;2023-04-01T02:06:38;99392.80;;;6.43;100.00
64632;BME280;58358;50.936;0.246;2023-04-01T02:09:02;99396.03;;;6.78;100.00
64632;BME280;58358;50.936;0.246;2023-04-01T02:11:28;99396.59;;;5.99;100.00
64632;BME280;58358;50.936;0.246;2023-04-01T02:13:54;99399.43;;;6.37;100.00
64632;BME280;58358;50.936;0.246;2023-04-01T02:16:20;99406.56;;;7.15;100.00
64632;BME280;58358;50.936;0.246;2023-04-01T02:18:44;99403.10;;;6.33;100.00
64632;BME280;58358;50.936;0.246;2023-04-01T02:21:09;99413.10;;;6.61;100.00
64632;BME280;58358;50.936;0.246;2023-04-01T02:23:34;99411.38;;;7.25;100.00
64632;BME280;58358;50.936;0.246;2023-04-01T02:25:59;99413.82;;;6.61;100.00
64632;BME280;58358;50.936;0.246;2023-04-01T02:28:24;99414.43;;;6.77;100.00
64632;BME280;58358;50.936;0.246;2023-04-01T02:30:50;99414.31;;;6.90;100.00
64632;BME280;58358;50.936;0.246;2023-04-01T02:33:16;99417.00;;;7.19;100.00
64632;BME280;58358;50.936;0.246;2023-04-01T02:35:41;99420.40;;;7.33;100.00
64632;BME280;58358;50.936;0.246;2023-04-01T02:38:07;99424.42;;;6.96;100.00
64632;BME280;58358;50.936;0.246;2023-04-01T02:40:41;99423.12;;;7.63;100.00
64632;BME280;58358;50.936;0.246;2023-04-01T02:42:59;99425.94;;;7.31;100.00
64632;BME280;58358;50.936;0.246;2023-04-01T02:45:24;99424.47;;;6.80;100.00
64632;BME280;58358;50.936;0.246;2023-04-01T02:47:49;99423.57;;;7.69;100.00
64632;BME280;58358;50.936;0.246;2023-04-01T02:50:16;99426.17;;;7.00;100.00
64632;BME280;58358;50.936;0.246;2023-04-01T02:52:41;99431.31;;;7.31;100.00
64632;BME280;58358;50.936;0.246;2023-04-01T02:55:07;99432.43;;;7.03;100.00
64632;BME280;58358;50.936;0.246;2023-04-01T02:57:32;99432.21;;;7.08;100.00
64632;BME280;58358;50.936;0.246;2023-04-01T02:59:58;99430.73;;;7.52;100.00
64632;BME280;58358;50.936;0.246;2023-04-01T03:02:24;99434.22;;;6.71;100.00
64632;BME280;58358;50.936;0.246;2023-04-01T03:04:49;99437.38;;;6.53;100.00
64632;BME280;58358;50.936;0.246;2023-04-01T03:07:15;99438.96;;;7.79;100.00
64632;BME280;58358;50.936;0.246;2023-04-01T03:09:41;99446.01;;;7.82;100.00
64632;BME280;58358;50.936;0.246;2023-04-01T03:12:06;99443.56;;;6.62;100.00
64632;BME280;58358;50.936;0.246;2023-04-01T03:14:32;99449.88;;;7.39;100.00
64632;BME280;58358;50.936;0.246;2023-04-01T03:16:57;99453.68;;;7.17;100.00
64632;BME280;58358;50.936;0.246;2023-04-01T03:19:23;99456.32;;;7.00;100.00
64632;BME280;58358;50.936;0.246;2023-04-01T03:21:48;99459.80;;;6.53;100.00
64632;BME280;58358;50.936;0.246;2023-04-01T03:24:14;99458.99;;;7.10;100.00
64632;BME280;58358;50.936;0.246;2023-04-01T03:26:40;99461.71;;;6.60;100.00
64632;BME280;58358;50.936;0.246;2023-04-01T03:29:06;99464.12;;;6.94;100.00
64632;BME280;58358;50.936;0.246;2023-04-01T03:31:31;99463.68;;;7.64;100.00
64632;BME280;58358;50.936;0.246;2023-04-01T03:33:57;99465.24;;;6.45;100.00
64632;BME280;58358;50.936;0.246;2023-04-01T03:36:22;99471.63;;;7.28;100.00
64632;BME280;58358;50.936;0.246;2023-04-01T03:38:48;99471.10;;;6.61;100.00
64632;BME280;58358;50.936;0.246;2023-04-01T03:41:15;99466.14;;;6.35;100.00
64632;BME280;58358;50.936;0.246;2023-04-01T03:43:40;99472.25;;;6.66;100.00
64632;BME280;58358;50.936;0.246;2023-04-01T03:46:05;99474.69;;;5.85;100.00
64632;BME280;58358;50.936;0.246;2023-04-01T03:48:31;99475.45;;;6.22;100.00
64632;BME280;58358;50.936;0.246;2023-04-01T03:50:56;99478.94;;;6.51;100.00
64632;BME280;58358;50.936;0.246;2023-04-01T03:53:22;99480.17;;;7.23;100.00
64632;BME280;58358;50.936;0.246;2023-04-01T03:55:47;99480.94;;;7.60;100.00
64632;BME280;58358;50.936;0.246;2023-04-01T03:58:13;99482.80;;;6.98;100.00
64632;BME280;58358;50.936;0.246;2023-04-01T04:00:39;99484.47;;;7.18;100.00
64632;BME280;58358;50.936;0.246;2023-04-01T04:03:06;99485.80;;;6.53;100.00
64632;BME280;58358;50.936;0.246;2023-04-01T04:05:31;99482.59;;;6.16;100.00
64632;BME280;58358;50.936;0.246;2023-04-01T04:07:56;99491.56;;;7.85;100.00
64632;BME280;58358;50.936;0.246;2023-04-01T04:10:22;99491.90;;;7.26;100.00
64632;BME280;58358;50.936;0.246;2023-04-01T04:12:49;99492.17;;;7.20;100.00
64632;BME280;58358;50.936;0.246;2023-04-01T04:15:14;99494.59;;;7.36;100.00
64632;BME280;58358;50.936;0.246;2023-04-01T04:17:39;99497.08;;;7.25;100.00
64632;BME280;58358;50.936;0.246;2023-04-01T04:20:07;99498.98;;;7.15;100.00
64632;BME280;58358;50.936;0.246;2023-04-01T04:22:31;99498.83;;;7.22;100.00
64632;BME280;58358;50.936;0.246;2023-04-01T04:24:57;99504.65;;;7.55;100.00
64632;BME280;58358;50.936;0.246;2023-04-01T04:27:23;99506.05;;;7.30;100.00
64632;BME280;58358;50.936;0.246;2023-04-01T04:29:48;99512.04;;;7.48;100.00
64632;BME280;58358;50.936;0.246;2023-04-01T04:32:14;99512.70;;;6.59;100.00
64632;BME280;58358;50.936;0.246;2023-04-01T04:34:40;99520.44;;;7.78;100.00
64632;BME280;58358;50.936;0.246;2023-04-01T04:37:06;99520.43;;;8.80;100.00
64632;BME280;58358;50.936;0.246;2023-04-01T04:39:31;99520.30;;;8.44;100.00
64632;BME280;58358;50.936;0.246;2023-04-01T04:41:57;99521.01;;;8.62;100.00
64632;BME280;58358;50.936;0.246;2023-04-01T04:44:23;99529.22;;;8.38;100.00
64632;BME280;58358;50.936;0.246;2023-04-01T04:46:48;99531.54;;;7.53;100.00
64632;BME280;58358;50.936;0.246;2023-04-01T04:49:14;99529.99;;;8.82;100.00
64632;BME280;58358;50.936;0.246;2023-04-01T04:51:40;99533.97;;;7.83;100.00
64632;BME280;58358;50.936;0.246;2023-04-01T04:54:08;99534.04;;;8.75;100.00
64632;BME280;58358;50.936;0.246;2023-04-01T04:56:32;99542.20;;;7.80;100.00
64632;BME280;58358;50.936;0.246;2023-04-01T04:58:57;99539.68;;;7.24;100.00
64632;BME280;58358;50.936;0.246;2023-04-01T05:01:23;99540.02;;;6.61;100.00
64632;BME280;58358;50.936;0.246;2023-04-01T05:03:49;99545.71;;;6.76;100.00
64632;BME280;58358;50.936;0.246;2023-04-01T05:06:16;99550.90;;;7.07;100.00
64632;BME280;58358;50.936;0.246;2023-04-01T05:08:41;99550.42;;;7.04;100.00
64632;BME280;58358;50.936;0.246;2023-04-01T05:11:09;99552.09;;;7.08;100.00
64632;BME280;58358;50.936;0.246;2023-04-01T05:13:31;99558.27;;;6.80;100.00
64632;BME280;58358;50.936;0.246;2023-04-01T05:15:57;99559.12;;;7.27;100.00
64632;BME280;58358;50.936;0.246;2023-04-01T05:18:23;99563.64;;;7.43;100.00
64632;BME280;58358;50.936;0.246;2023-04-01T05:20:50;99566.93;;;7.73;100.00
64632;BME280;58358;50.936;0.246;2023-04-01T05:23:15;99570.21;;;7.72;100.00
64632;BME280;58358;50.936;0.246;2023-04-01T05:25:40;99569.23;;;7.31;100.00
64632;BME280;58358;50.936;0.246;2023-04-01T05:28:06;99571.09;;;7.56;100.00
64632;BME280;58358;50.936;0.246;2023-04-01T05:30:31;99577.99;;;7.72;100.00
64632;BME280;58358;50.936;0.246;2023-04-01T05:32:57;99578.87;;;7.82;100.00
64632;BME280;58358;50.936;0.246;2023-04-01T05:35:23;99573.44;;;7.45;100.00
64632;BME280;58358;50.936;0.246;2023-04-01T05:37:48;99581.60;;;8.39;100.00
64632;BME280;58358;50.936;0.246;2023-04-01T05:40:14;99581.96;;;8.22;100.00
64632;BME280;58358;50.936;0.246;2023-04-01T05:42:39;99585.39;;;7.47;100.00
64632;BME280;58358;50.936;0.246;2023-04-01T05:45:06;99587.45;;;8.08;100.00
64632;BME280;58358;50.936;0.246;2023-04-01T05:47:30;99589.68;;;8.42;99.21
64632;BME280;58358;50.936;0.246;2023-04-01T05:49:56;99589.30;;;9.31;96.28
64632;BME280;58358;50.936;0.246;2023-04-01T05:52:22;99597.35;;;7.89;98.10
64632;BME280;58358;50.936;0.246;2023-04-01T05:54:48;99596.23;;;8.83;95.07
64632;BME280;58358;50.936;0.246;2023-04-01T05:57:14;99594.59;;;8.72;95.13
64632;BME280;58358;50.936;0.246;2023-04-01T05:59:39;99597.79;;;9.02;93.77
64632;BME280;58358;50.936;0.246;2023-04-01T06:02:06;99600.74;;;10.32;90.98
64632;BME280;58358;50.936;0.246;2023-04-01T06:04:37;99601.24;;;9.12;93.33
64632;BME280;58358;50.936;0.246;2023-04-01T06:06:57;99604.00;;;9.17;92.78
64632;BME280;58358;50.936;0.246;2023-04-01T06:09:27;99609.12;;;8.05;94.87
64632;BME280;58358;50.936;0.246;2023-04-01T06:14:22;99617.03;;;7.58;97.61
64632;BME280;58358;50.936;0.246;2023-04-01T06:16:52;99621.19;;;8.26;97.15
64632;BME280;58358;50.936;0.246;2023-04-01T06:19:20;99616.67;;;7.92;99.81
64632;BME280;58358;50.936;0.246;2023-04-01T06:21:46;99618.52;;;7.74;99.78
64632;BME280;58358;50.936;0.246;2023-04-01T06:24:05;99624.49;;;7.81;98.73
64632;BME280;58358;50.936;0.246;2023-04-01T06:26:29;99628.76;;;7.68;98.57
64632;BME280;58358;50.936;0.246;2023-04-01T06:28:59;99630.20;;;8.65;97.94
64632;BME280;58358;50.936;0.246;2023-04-01T06:31:26;99628.98;;;9.09;93.78
64632;BME280;58358;50.936;0.246;2023-04-01T06:33:51;99633.61;;;8.93;94.09
64632;BME280;58358;50.936;0.246;2023-04-01T06:36:16;99631.10;;;9.45;93.15
64632;BME280;58358;50.936;0.246;2023-04-01T06:38:46;99636.38;;;9.49;91.18
64632;BME280;58358;50.936;0.246;2023-04-01T06:41:11;99640.15;;;8.71;93.90
64632;BME280;58358;50.936;0.246;2023-04-01T06:43:27;99642.77;;;8.12;94.88
64632;BME280;58358;50.936;0.246;2023-04-01T06:45:54;99648.04;;;8.95;94.10
64632;BME280;58358;50.936;0.246;2023-04-01T06:48:26;99652.02;;;9.17;92.45
64632;BME280;58358;50.936;0.246;2023-04-01T06:50:47;99648.23;;;9.16;91.55
64632;BME280;58358;50.936;0.246;2023-04-01T06:53:10;99653.39;;;9.14;93.52
64632;BME280;58358;50.936;0.246;2023-04-01T06:55:36;99656.72;;;8.03;95.55
64632;BME280;58358;50.936;0.246;2023-04-01T06:57:58;99664.82;;;8.51;96.11
64632;BME280;58358;50.936;0.246;2023-04-01T07:00:29;99663.47;;;8.46;96.46
64632;BME280;58358;50.936;0.246;2023-04-01T07:02:54;99667.50;;;7.75;97.17
64632;BME280;58358;50.936;0.246;2023-04-01T07:05:15;99673.16;;;8.22;97.01
64632;BME280;58358;50.936;0.246;2023-04-01T07:07:42;99670.34;;;7.57;99.04
64632;BME280;58358;50.936;0.246;2023-04-01T07:10:10;99677.84;;;8.30;98.03
64632;BME280;58358;50.936;0.246;2023-04-01T07:12:38;99678.54;;;9.17;94.96
64632;BME280;58358;50.936;0.246;2023-04-01T07:14:58;99682.98;;;8.63;96.49
64632;BME280;58358;50.936;0.246;2023-04-01T07:17:24;99686.06;;;8.15;96.85
64632;BME280;58358;50.936;0.246;2023-04-01T07:19:51;99685.25;;;7.88;96.18
64632;BME280;58358;50.936;0.246;2023-04-01T07:22:21;99688.03;;;8.13;98.33
64632;BME280;58358;50.936;0.246;2023-04-01T07:24:41;99693.04;;;8.44;98.08
64632;BME280;58358;50.936;0.246;2023-04-01T07:27:08;99695.31;;;8.95;94.79
64632;BME280;58358;50.936;0.246;2023-04-01T07:29:30;99694.05;;;9.72;91.83
64632;BME280;58358;50.936;0.246;2023-04-01T07:32:08;99699.62;;;8.81;93.75
64632;BME280;58358;50.936;0.246;2023-04-01T07:34:26;99700.55;;;7.68;98.46
64632;BME280;58358;50.936;0.246;2023-04-01T07:36:53;99700.39;;;7.73;99.40
64632;BME280;58358;50.936;0.246;2023-04-01T07:39:25;99706.14;;;8.09;98.39
64632;BME280;58358;50.936;0.246;2023-04-01T07:41:47;99712.85;;;6.64;100.00
64632;BME280;58358;50.936;0.246;2023-04-01T07:44:11;99714.07;;;8.08;99.40
64632;BME280;58358;50.936;0.246;2023-04-01T07:46:45;99715.40;;;8.38;96.97
64632;BME280;58358;50.936;0.246;2023-04-01T07:49:00;99720.25;;;7.94;96.68
64632;BME280;58358;50.936;0.246;2023-04-01T07:51:29;99725.07;;;6.94;99.59
64632;BME280;58358;50.936;0.246;2023-04-01T07:53:51;99730.32;;;8.64;95.74
64632;BME280;58358;50.936;0.246;2023-04-01T07:56:17;99738.46;;;9.33;92.98
64632;BME280;58358;50.936;0.246;2023-04-01T07:58:49;99738.91;;;8.50;94.04
64632;BME280;58358;50.936;0.246;2023-04-01T08:01:11;99743.10;;;9.36;91.48
64632;BME280;58358;50.936;0.246;2023-04-01T08:03:41;99742.90;;;8.50;96.04
64632;BME280;58358;50.936;0.246;2023-04-01T08:06:00;99745.17;;;8.48;94.57
64632;BME280;58358;50.936;0.246;2023-04-01T08:08:31;99748.90;;;7.79;95.01
64632;BME280;58358;50.936;0.246;2023-04-01T08:10:51;99751.90;;;8.62;94.32
64632;BME280;58358;50.936;0.246;2023-04-01T08:13:21;99755.42;;;7.79;94.94
64632;BME280;58358;50.936;0.246;2023-04-01T08:15:44;99757.83;;;7.64;100.00
64632;BME280;58358;50.936;0.246;2023-04-01T08:18:13;99763.35;;;7.98;97.45
64632;BME280;58358;50.936;0.246;2023-04-01T08:20:35;99767.95;;;7.93;97.90
64632;BME280;58358;50.936;0.246;2023-04-01T08:23:00;99771.95;;;8.27;96.05
64632;BME280;58358;50.936;0.246;2023-04-01T08:25:25;99775.27;;;7.99;96.56
64632;BME280;58358;50.936;0.246;2023-04-01T08:27:53;99781.15;;;6.96;99.97
64632;BME280;58358;50.936;0.246;2023-04-01T08:30:18;99779.93;;;7.58;99.08
64632;BME280;58358;50.936;0.246;2023-04-01T08:32:42;99782.20;;;6.71;100.00
64632;BME280;58358;50.936;0.246;2023-04-01T08:35:09;99786.84;;;7.90;98.91
64632;BME280;58358;50.936;0.246;2023-04-01T08:37:33;99794.13;;;8.29;95.69
64632;BME280;58358;50.936;0.246;2023-04-01T08:40:00;99793.05;;;8.79;95.28
64632;BME280;58358;50.936;0.246;2023-04-01T08:47:28;99803.62;;;7.30;96.79
64632;BME280;58358;50.936;0.246;2023-04-01T08:49:57;99805.33;;;6.86;99.74
64632;BME280;58358;50.936;0.246;2023-04-01T08:52:18;99813.08;;;7.34;95.27
64632;BME280;58358;50.936;0.246;2023-04-01T08:54:44;99805.72;;;6.08;99.84
64632;BME280;58358;50.936;0.246;2023-04-01T08:57:03;99812.88;;;6.78;100.00
64632;BME280;58358;50.936;0.246;2023-04-01T08:59:32;99816.59;;;6.77;100.00
64632;BME280;58358;50.936;0.246;2023-04-01T09:02:02;99819.79;;;7.77;99.29
64632;BME280;58358;50.936;0.246;2023-04-01T09:04:25;99823.26;;;7.50;98.28
64632;BME280;58358;50.936;0.246;2023-04-01T09:06:50;99824.29;;;8.01;97.75
64632;BME280;58358;50.936;0.246;2023-04-01T09:11:42;99827.65;;;7.53;96.54
64632;BME280;58358;50.936;0.246;2023-04-01T09:14:08;99831.14;;;8.97;94.97
64632;BME280;58358;50.936;0.246;2023-04-01T09:16:30;99833.99;;;8.60;91.61
64632;BME280;58358;50.936;0.246;2023-04-01T09:18:59;99830.56;;;9.05;89.90
64632;BME280;58358;50.936;0.246;2023-04-01T09:21:24;99834.85;;;8.62;89.90
64632;BME280;58358;50.936;0.246;2023-04-01T09:23:56;99838.07;;;8.75;90.60
64632;BME280;58358;50.936;0.246;2023-04-01T09:26:16;99842.10;;;8.79;90.34
64632;BME280;58358;50.936;0.246;2023-04-01T09:28:37;99842.74;;;7.63;93.32
64632;BME280;58358;50.936;0.246;2023-04-01T09:31:12;99845.38;;;7.93;94.22
64632;BME280;58358;50.936;0.246;2023-04-01T09:35:49;99852.89;;;7.96;94.47
64632;BME280;58358;50.936;0.246;2023-04-01T09:38:20;99851.06;;;6.81;96.74
64632;BME280;58358;50.936;0.246;2023-04-01T09:40:46;99853.47;;;7.61;93.45
64632;BME280;58358;50.936;0.246;2023-04-01T09:45:39;99860.85;;;8.05;93.93
64632;BME280;58358;50.936;0.246;2023-04-01T09:48:04;99861.49;;;8.76;93.12
64632;BME280;58358;50.936;0.246;2023-04-01T09:50:32;99866.38;;;8.18;93.72
64632;BME280;58358;50.936;0.246;2023-04-01T09:52:53;99869.13;;;8.31;92.83
64632;BME280;58358;50.936;0.246;2023-04-01T10:12:33;99895.35;;;7.99;91.73
64632;BME280;58358;50.936;0.246;2023-04-01T10:14:49;99899.44;;;8.81;89.48
64632;BME280;58358;50.936;0.246;2023-04-01T10:19:44;99906.57;;;8.39;90.76
64632;BME280;58358;50.936;0.246;2023-04-01T10:26:59;99914.67;;;9.63;89.19
64632;BME280;58358;50.936;0.246;2023-04-01T10:36:48;99922.81;;;10.54;85.56
64632;BME280;58358;50.936;0.246;2023-04-01T10:39:13;99922.76;;;9.54;85.28
64632;BME280;58358;50.936;0.246;2023-04-01T10:43:57;99926.50;;;9.71;84.69
64632;BME280;58358;50.936;0.246;2023-04-01T10:51:16;99933.05;;;9.75;85.89
64632;BME280;58358;50.936;0.246;2023-04-01T10:53:37;99937.69;;;9.71;84.53
64632;BME280;58358;50.936;0.246;2023-04-01T11:03:24;99947.43;;;10.54;83.33
64632;BME280;58358;50.936;0.246;2023-04-01T11:08:16;99945.56;;;10.17;83.35
64632;BME280;58358;50.936;0.246;2023-04-01T11:15:35;99950.38;;;9.14;87.15
64632;BME280;58358;50.936;0.246;2023-04-01T11:18:06;99951.74;;;8.03;89.58
64632;BME280;58358;50.936;0.246;2023-04-01T11:22:49;99956.72;;;9.33;85.04
64632;BME280;58358;50.936;0.246;2023-04-01T11:25:18;99957.50;;;9.48;85.70
64632;BME280;58358;50.936;0.246;2023-04-01T11:27:45;99956.82;;;9.89;83.15
64632;BME280;58358;50.936;0.246;2023-04-01T11:30:04;99960.66;;;10.80;81.26
64632;BME280;58358;50.936;0.246;2023-04-01T11:32:29;99965.66;;;11.77;77.11
64632;BME280;58358;50.936;0.246;2023-04-01T11:34:57;99969.55;;;9.98;81.59
64632;BME280;58358;50.936;0.246;2023-04-01T11:37:21;99969.18;;;8.49;84.80
64632;BME280;58358;50.936;0.246;2023-04-01T11:39:42;99977.89;;;8.92;81.43
64632;BME280;58358;50.936;0.246;2023-04-01T11:42:14;99973.93;;;9.22;84.00
64632;BME280;58358;50.936;0.246;2023-04-01T11:44:29;99977.87;;;8.82;85.17
64632;BME280;58358;50.936;0.246;2023-04-01T11:49:31;99985.96;;;9.55;82.46
64632;BME280;58358;50.936;0.246;2023-04-01T11:52:07;99992.23;;;9.48;81.79
64632;BME280;58358;50.936;0.246;2023-04-01T11:54:25;100000.55;;;10.19;78.37
64632;BME280;58358;50.936;0.246;2023-04-01T11:56:51;100002.94;;;10.43;79.56
64632;BME280;58358;50.936;0.246;2023-04-01T12:01:31;100008.83;;;8.71;84.05
64632;BME280;58358;50.936;0.246;2023-04-01T12:06:31;100016.32;;;9.78;80.95
64632;BME280;58358;50.936;0.246;2023-04-01T12:08:48;100023.72;;;8.63;84.28
64632;BME280;58358;50.936;0.246;2023-04-01T12:11:15;100027.27;;;8.61;85.40
64632;BME280;58358;50.936;0.246;2023-04-01T12:13:42;100037.19;;;8.08;87.32
64632;BME280;58358;50.936;0.246;2023-04-01T12:18:33;100035.09;;;8.81;85.41
64632;BME280;58358;50.936;0.246;2023-04-01T12:20:57;100040.01;;;9.29;83.06
64632;BME280;58358;50.936;0.246;2023-04-01T12:25:56;100035.70;;;10.29;82.79
64632;BME280;58358;50.936;0.246;2023-04-01T12:28:15;100049.27;;;9.50;80.61
64632;BME280;58358;50.936;0.246;2023-04-01T12:30:45;100043.91;;;9.91;78.43
64632;BME280;58358;50.936;0.246;2023-04-01T12:33:16;100046.66;;;9.86;81.39
64632;BME280;58358;50.936;0.246;2023-04-01T12:35:32;100047.04;;;9.87;78.43
64632;BME280;58358;50.936;0.246;2023-04-01T12:38:03;100055.26;;;10.58;77.95
64632;BME280;58358;50.936;0.246;2023-04-01T12:40:29;100058.01;;;10.19;78.05
64632;BME280;58358;50.936;0.246;2023-04-01T12:42:55;100066.22;;;10.59;75.60
64632;BME280;58358;50.936;0.246;2023-04-01T12:45:26;100069.32;;;9.91;80.11
64632;BME280;58358;50.936;0.246;2023-04-01T12:47:53;100069.79;;;8.60;83.18
64632;BME280;58358;50.936;0.246;2023-04-01T12:50:10;100074.67;;;9.69;80.78
64632;BME280;58358;50.936;0.246;2023-04-01T12:52:39;100075.62;;;10.21;79.62
64632;BME280;58358;50.936;0.246;2023-04-01T12:55:00;100080.24;;;8.51;82.74
64632;BME280;58358;50.936;0.246;2023-04-01T12:57:30;100079.69;;;10.10;76.89
64632;BME280;58358;50.936;0.246;2023-04-01T12:59:55;100085.22;;;8.33;83.49
64632;BME280;58358;50.936;0.246;2023-04-01T13:02:13;100086.88;;;9.42;78.66
64632;BME280;58358;50.936;0.246;2023-04-01T13:04:47;100080.57;;;9.66;78.71
64632;BME280;58358;50.936;0.246;2023-04-01T13:07:21;100085.61;;;8.91;78.33
64632;BME280;58358;50.936;0.246;2023-04-01T13:09:34;100094.65;;;9.43;78.13
64632;BME280;58358;50.936;0.246;2023-04-01T13:12:04;100103.54;;;9.38;80.79
64632;BME280;58358;50.936;0.246;2023-04-01T13:14:31;100099.24;;;8.96;80.46
64632;BME280;58358;50.936;0.246;2023-04-01T13:16:47;100113.04;;;9.38;81.97
64632;BME280;58358;50.936;0.246;2023-04-01T13:19:13;100109.31;;;8.61;82.40
64632;BME280;58358;50.936;0.246;2023-04-01T13:21:41;100111.39;;;8.33;82.50
64632;BME280;58358;50.936;0.246;2023-04-01T13:24:02;100108.42;;;8.20;83.88
64632;BME280;58358;50.936;0.246;2023-04-01T13:26:29;100114.32;;;8.86;81.72
64632;BME280;58358;50.936;0.246;2023-04-01T13:28:53;100113.05;;;8.19;84.12
64632;BME280;58358;50.936;0.246;2023-04-01T13:31:34;100112.87;;;8.80;81.15
64632;BME280;58358;50.936;0.246;2023-04-01T13:33:45;100118.83;;;9.05;81.74
64632;BME280;58358;50.936;0.246;2023-04-01T13:36:17;100112.42;;;9.98;76.28
64632;BME280;58358;50.936;0.246;2023-04-01T13:38:48;100123.55;;;10.14;75.51
64632;BME280;58358;50.936;0.246;2023-04-01T13:41:05;100135.21;;;9.08;77.56
64632;BME280;58358;50.936;0.246;2023-04-01T13:43:28;100128.79;;;9.96;77.72
64632;BME280;58358;50.936;0.246;2023-04-01T13:46:07;100136.32;;;9.19;77.98
64632;BME280;58358;50.936;0.246;2023-04-01T13:48:30;100146.39;;;9.12;79.78
64632;BME280;58358;50.936;0.246;2023-04-01T13:50:56;100146.21;;;8.24;79.34
64632;BME280;58358;50.936;0.246;2023-04-01T13:53:17;100143.19;;;9.14;78.99
64632;BME280;58358;50.936;0.246;2023-04-01T14:00:31;100146.74;;;9.38;72.03
64632;BME280;58358;50.936;0.246;2023-04-01T14:03:00;100152.46;;;9.18;73.63
64632;BME280;58358;50.936;0.246;2023-04-01T14:07:54;100158.57;;;9.76;69.89
64632;BME280;58358;50.936;0.246;2023-04-01T14:10:18;100156.72;;;10.41;69.53
64632;BME280;58358;50.936;0.246;2023-04-01T14:12:39;100156.63;;;9.50;69.06
64632;BME280;58358;50.936;0.246;2023-04-01T14:15:09;100159.68;;;10.55;67.81
64632;BME280;58358;50.936;0.246;2023-04-01T14:17:39;100159.26;;;11.53;65.25
64632;BME280;58358;50.936;0.246;2023-04-01T14:20:00;100164.88;;;12.55;60.79
64632;BME280;58358;50.936;0.246;2023-04-01T14:22:23;100168.22;;;12.79;59.09
64632;BME280;58358;50.936;0.246;2023-04-01T14:24:51;100177.89;;;13.78;54.32